Wervik, Belgium
Current Conditions -  °F | °C
As of 7:30 AM on Monday 26 Jan 2015 (Local Time) from LFQQ Reporting Station
Overcast Overcast  
Wind Chill: 40°   Ceiling: 500
Heat Index: 45°   Visibility: 6mi
Dew Point: 45°   Wind: 9mph
Humidity: 100%   Direction: 250°WSW
Pressure: 30.18"   Gusts: NA
Location:  50.78°N, 3.04°E
Report Text: LFQQ 260630Z 25008KT 9999 OVC005 07/07 Q1022 TEMPO 1500 DZRA
Loading
Personal Weather Stations






























Interactive Weather Map New forecast layout! Learn more

10-Day Weather Forecast

Advertisements
Track Severe Weather on mobile